createdAt,value
2022-08-05T00:01:49.142Z,25.30
2022-08-05T00:06:05.094Z,25.50
2022-08-05T00:09:36.274Z,25.50
2022-08-05T00:13:19.871Z,25.60
2022-08-05T00:17:03.046Z,25.70
2022-08-05T00:20:45.808Z,25.70
2022-08-05T00:24:31.655Z,25.60
2022-08-05T00:28:16.012Z,25.60
2022-08-05T00:32:14.990Z,25.60
2022-08-05T00:36:16.028Z,25.40
2022-08-05T00:40:00.729Z,25.20
2022-08-05T00:43:49.671Z,24.90
2022-08-05T00:47:57.438Z,24.60
2022-08-05T00:51:51.774Z,24.50
2022-08-05T00:55:43.576Z,24.30
2022-08-05T00:59:42.070Z,24.30
2022-08-05T01:03:31.053Z,24.20
2022-08-05T01:07:17.917Z,24.00
2022-08-05T01:11:05.593Z,23.90
2022-08-05T01:14:58.811Z,23.80
2022-08-05T01:18:56.122Z,23.70
2022-08-05T01:22:50.596Z,23.70
2022-08-05T01:26:45.312Z,23.70
2022-08-05T01:30:39.001Z,23.50
2022-08-05T01:34:26.989Z,23.40
2022-08-05T01:38:24.595Z,23.30
2022-08-05T01:42:13.794Z,23.30
2022-08-05T01:46:07.459Z,23.10
2022-08-05T01:50:02.758Z,23.00
2022-08-05T01:53:57.617Z,22.90
2022-08-05T01:58:12.248Z,22.70
2022-08-05T02:01:50.695Z,22.70
2022-08-05T02:05:37.638Z,22.70
2022-08-05T02:09:25.032Z,22.60
2022-08-05T02:13:16.401Z,22.60
2022-08-05T02:17:06.146Z,22.50
2022-08-05T02:20:55.346Z,22.50
2022-08-05T02:24:47.877Z,22.50
2022-08-05T02:28:41.778Z,22.40
2022-08-05T02:32:32.667Z,22.40
2022-08-05T02:36:19.268Z,22.40
2022-08-05T02:40:04.234Z,22.40
2022-08-05T02:44:06.539Z,22.40
2022-08-05T02:48:11.760Z,22.30
2022-08-05T02:52:03.853Z,22.30
2022-08-05T02:55:54.942Z,22.30
2022-08-05T02:59:50.200Z,22.30
2022-08-05T03:04:02.720Z,22.30
2022-08-05T03:08:06.942Z,22.30
2022-08-05T03:11:57.349Z,22.20
2022-08-05T03:15:44.182Z,22.30
2022-08-05T03:19:33.916Z,22.30
2022-08-05T03:23:18.948Z,22.30
2022-08-05T03:27:06.998Z,22.30
2022-08-05T03:30:49.675Z,22.20
2022-08-05T03:34:35.078Z,22.20
2022-08-05T03:38:23.824Z,22.00
2022-08-05T03:42:15.486Z,22.00
2022-08-05T03:45:59.069Z,22.00
2022-08-05T03:49:51.405Z,22.00
2022-08-05T03:55:54.023Z,21.90
2022-08-05T03:57:46.335Z,21.90
2022-08-05T04:01:32.689Z,22.00
2022-08-05T04:05:16.888Z,22.10
2022-08-05T04:09:00.640Z,22.20
2022-08-05T04:16:25.418Z,22.10
2022-08-05T04:20:24.497Z,21.90
2022-08-05T04:24:09.165Z,21.90
2022-08-05T04:28:00.644Z,21.80
2022-08-05T04:31:48.215Z,21.90
2022-08-05T04:36:15.581Z,22.00
2022-08-05T04:39:35.724Z,22.20
2022-08-05T04:43:22.047Z,22.40
2022-08-05T04:47:09.345Z,22.60
2022-08-05T04:51:01.630Z,22.80
2022-08-05T04:54:46.613Z,22.90
2022-08-05T04:58:29.623Z,22.90
2022-08-05T05:02:36.305Z,22.90
2022-08-05T05:06:36.565Z,22.70
2022-08-05T05:10:18.914Z,22.40
2022-08-05T05:14:03.387Z,22.20
2022-08-05T05:17:55.648Z,21.90
2022-08-05T05:21:41.781Z,21.80
2022-08-05T05:25:37.226Z,21.70
2022-08-05T05:29:23.271Z,21.80
2022-08-05T05:33:16.483Z,21.70
2022-08-05T05:37:01.628Z,21.70
2022-08-05T05:40:51.113Z,22.00
2022-08-05T05:44:37.441Z,22.10
2022-08-05T05:48:27.604Z,22.30
2022-08-05T05:52:26.355Z,22.80
2022-08-05T05:56:12.542Z,23.10
2022-08-05T05:59:55.076Z,23.60
2022-08-05T06:03:54.076Z,23.80
2022-08-05T06:07:42.501Z,23.60
2022-08-05T06:12:01.354Z,23.60
2022-08-05T06:16:30.123Z,23.50
2022-08-05T06:19:56.907Z,23.30
2022-08-05T06:23:44.401Z,23.40
2022-08-05T06:28:11.107Z,23.30
2022-08-05T06:31:32.135Z,23.10
2022-08-05T06:35:15.436Z,23.00
2022-08-05T06:39:19.334Z,23.10
2022-08-05T06:43:04.769Z,23.20
2022-08-05T06:46:47.338Z,23.10
2022-08-05T06:50:33.490Z,23.30
2022-08-05T06:54:18.137Z,23.50
2022-08-05T06:58:29.804Z,23.70
2022-08-05T07:02:06.036Z,23.80
2022-08-05T07:05:48.331Z,24.00
2022-08-05T07:09:32.550Z,23.90
2022-08-05T07:13:57.818Z,24.00
2022-08-05T07:18:08.552Z,24.30
2022-08-05T07:22:00.231Z,24.70
2022-08-05T07:25:54.675Z,24.70
2022-08-05T07:30:27.060Z,24.70
2022-08-05T07:33:42.837Z,24.90
2022-08-05T07:37:29.158Z,24.60
2022-08-05T07:42:14.488Z,24.80
2022-08-05T07:45:57.852Z,24.80
2022-08-05T07:49:28.655Z,24.70
2022-08-05T07:53:11.415Z,24.50
2022-08-05T07:57:14.860Z,24.50
2022-08-05T08:01:06.181Z,24.70
2022-08-05T08:04:54.798Z,24.90
2022-08-05T08:08:37.575Z,25.00
2022-08-05T08:12:37.448Z,25.10
2022-08-05T08:16:35.401Z,25.40
2022-08-05T08:20:44.341Z,25.10
2022-08-05T08:24:41.489Z,25.20
2022-08-05T08:28:37.058Z,25.10
2022-08-05T08:32:39.818Z,24.90
2022-08-05T08:36:38.405Z,24.90
2022-08-05T08:40:26.910Z,25.10
2022-08-05T08:45:18.935Z,25.10
2022-08-05T08:48:36.149Z,25.40
2022-08-05T08:52:24.467Z,25.50
2022-08-05T08:56:07.958Z,25.90
2022-08-05T08:59:52.018Z,25.90
2022-08-05T09:03:45.399Z,26.10
2022-08-05T09:07:39.462Z,26.00
2022-08-05T09:11:51.837Z,26.10
2022-08-05T09:15:37.037Z,26.40
2022-08-05T09:19:21.205Z,26.60
2022-08-05T09:23:19.656Z,26.70
2022-08-05T09:27:09.717Z,26.70
2022-08-05T09:30:56.497Z,26.70
2022-08-05T09:34:51.838Z,26.90
2022-08-05T09:38:34.769Z,27.30
2022-08-05T09:42:24.208Z,27.40
2022-08-05T09:46:28.164Z,27.60
2022-08-05T09:50:12.699Z,27.80
2022-08-05T09:54:04.822Z,27.90
2022-08-05T09:57:47.775Z,28.10
2022-08-05T10:01:33.600Z,27.60
2022-08-05T10:05:19.839Z,28.00
2022-08-05T10:09:27.638Z,27.80
2022-08-05T10:13:12.385Z,28.00
2022-08-05T10:16:59.061Z,28.00
2022-08-05T10:20:48.315Z,28.30
2022-08-05T10:24:34.116Z,28.40
2022-08-05T10:28:29.608Z,28.50
2022-08-05T10:32:53.761Z,28.40
2022-08-05T10:36:18.258Z,28.60
2022-08-05T10:40:17.662Z,28.70
2022-08-05T10:44:05.567Z,28.60
2022-08-05T10:48:30.313Z,28.60
2022-08-05T10:52:00.104Z,28.70
2022-08-05T10:56:05.299Z,28.90
2022-08-05T11:00:17.963Z,29.20
2022-08-05T11:04:11.920Z,29.30
2022-08-05T11:08:12.917Z,28.90
2022-08-05T11:12:05.903Z,29.40
2022-08-05T11:16:33.754Z,29.60
2022-08-05T11:20:39.209Z,30.10
2022-08-05T11:24:29.965Z,29.90
2022-08-05T11:28:44.251Z,29.80
2022-08-05T11:32:29.211Z,30.10
2022-08-05T11:36:13.344Z,30.00
2022-08-05T11:40:02.782Z,29.60
2022-08-05T11:44:04.419Z,29.70
2022-08-05T11:47:50.526Z,29.30
2022-08-05T11:51:44.868Z,29.20
2022-08-05T11:55:36.480Z,29.30
2022-08-05T11:59:21.347Z,29.60
2022-08-05T12:03:28.406Z,29.40
2022-08-05T12:07:14.293Z,28.70
2022-08-05T12:11:04.160Z,29.20
2022-08-05T12:14:48.874Z,29.00
2022-08-05T12:18:38.951Z,29.50
2022-08-05T12:22:27.238Z,29.60
2022-08-05T12:26:11.565Z,29.90
2022-08-05T12:30:03.314Z,30.40
2022-08-05T12:33:46.416Z,30.40
2022-08-05T12:37:29.957Z,30.40
2022-08-05T12:41:17.059Z,30.30
2022-08-05T12:45:08.902Z,30.40
2022-08-05T12:48:59.275Z,30.40
2022-08-05T12:52:42.901Z,30.40
2022-08-05T12:56:35.126Z,30.70
2022-08-05T13:02:03.768Z,30.20
2022-08-05T13:04:31.905Z,30.20
2022-08-05T13:08:19.174Z,30.50
2022-08-05T13:12:13.254Z,30.30
2022-08-05T13:15:59.140Z,30.40
2022-08-05T13:19:52.257Z,30.00
2022-08-05T13:23:35.694Z,29.50
2022-08-05T13:27:38.109Z,29.80
2022-08-05T13:31:33.992Z,30.20
2022-08-05T13:35:43.269Z,30.30
2022-08-05T13:40:16.646Z,30.20
2022-08-05T13:43:44.162Z,30.20
2022-08-05T13:47:35.650Z,30.50
2022-08-05T13:51:36.696Z,30.70
2022-08-05T13:55:41.549Z,30.60
2022-08-05T13:59:30.803Z,30.50
2022-08-05T14:03:13.715Z,30.50
2022-08-05T14:07:11.980Z,30.60
2022-08-05T14:11:19.817Z,30.30
2022-08-05T14:16:06.273Z,30.10
2022-08-05T14:19:07.666Z,29.30
2022-08-05T14:22:52.346Z,29.00
2022-08-05T14:26:40.914Z,28.90
2022-08-05T14:30:35.415Z,28.90
2022-08-05T14:34:18.581Z,28.90
2022-08-05T14:38:06.295Z,28.90
2022-08-05T14:42:21.011Z,28.80
2022-08-05T14:46:06.099Z,28.20
2022-08-05T14:49:56.326Z,28.30
2022-08-05T14:53:44.387Z,28.10
2022-08-05T14:57:34.025Z,27.90
2022-08-05T15:01:47.963Z,27.90
2022-08-05T15:06:13.041Z,28.10
2022-08-05T15:09:52.316Z,28.30
2022-08-05T15:13:45.920Z,27.50
2022-08-05T15:17:45.680Z,27.50
2022-08-05T15:21:30.510Z,27.40
2022-08-05T15:25:14.292Z,27.20
2022-08-05T15:28:57.505Z,26.80
2022-08-05T15:32:48.148Z,26.80
2022-08-05T15:36:31.030Z,26.50
2022-08-05T15:41:00.359Z,26.40
2022-08-05T15:44:17.118Z,26.60
2022-08-05T15:48:03.648Z,26.70
2022-08-05T15:52:13.444Z,26.00
2022-08-05T15:56:02.986Z,26.00
2022-08-05T15:59:47.568Z,26.10
2022-08-05T16:03:32.692Z,26.00
2022-08-05T16:07:16.879Z,26.20
2022-08-05T16:11:00.929Z,25.90
2022-08-05T16:14:44.577Z,25.60
2022-08-05T16:18:28.014Z,25.60
2022-08-05T16:22:13.277Z,25.40
2022-08-05T16:26:05.069Z,25.50
2022-08-05T16:29:51.089Z,25.40
2022-08-05T16:33:41.582Z,25.00
2022-08-05T16:38:15.643Z,25.10
2022-08-05T16:42:13.787Z,25.00
2022-08-05T16:46:07.590Z,25.20
2022-08-05T16:49:33.726Z,25.30
2022-08-05T16:53:22.920Z,25.30
2022-08-05T16:57:21.915Z,25.10
2022-08-05T17:01:06.634Z,24.90
2022-08-05T17:04:53.023Z,24.80
2022-08-05T17:08:53.358Z,24.60
2022-08-05T17:12:51.369Z,24.40
2022-08-05T17:16:36.009Z,24.40
2022-08-05T17:20:19.352Z,24.20
2022-08-05T17:24:19.736Z,24.00
2022-08-05T17:28:06.098Z,23.80
2022-08-05T17:31:58.614Z,23.50
2022-08-05T17:36:08.721Z,23.10
2022-08-05T17:39:45.909Z,23.00
2022-08-05T17:43:50.356Z,22.70
2022-08-05T17:47:36.173Z,22.50
2022-08-05T17:51:21.946Z,22.50
2022-08-05T17:55:08.046Z,22.40
2022-08-05T17:58:51.231Z,22.40
2022-08-05T18:02:35.132Z,22.30
2022-08-05T18:06:17.622Z,22.20
2022-08-05T18:10:21.082Z,22.10
2022-08-05T18:14:06.752Z,22.00
2022-08-05T18:18:00.598Z,21.90
2022-08-05T18:22:09.034Z,21.70
2022-08-05T18:25:57.809Z,21.70
2022-08-05T18:29:42.502Z,21.70
2022-08-05T18:33:37.547Z,21.60
2022-08-05T18:37:34.581Z,21.70
2022-08-05T18:41:57.878Z,21.60
2022-08-05T18:45:41.710Z,21.50
2022-08-05T18:49:57.330Z,21.50
2022-08-05T18:53:42.987Z,21.40
2022-08-05T18:57:43.169Z,21.30
2022-08-05T19:01:47.630Z,21.20
2022-08-05T19:06:11.690Z,21.10
2022-08-05T19:09:40.036Z,20.90
2022-08-05T19:13:29.260Z,21.00
2022-08-05T19:17:12.930Z,21.00
2022-08-05T19:20:55.995Z,20.90
2022-08-05T19:24:38.837Z,20.80
2022-08-05T19:28:41.820Z,20.70
2022-08-05T19:32:26.159Z,20.70
2022-08-05T19:36:10.880Z,20.70
2022-08-05T19:39:58.188Z,20.50
2022-08-05T19:44:06.887Z,20.40
2022-08-05T19:47:45.525Z,20.10
2022-08-05T19:52:05.760Z,20.10
2022-08-05T19:56:14.545Z,20.10
2022-08-05T19:59:55.177Z,20.20
2022-08-05T20:03:42.193Z,20.10
2022-08-05T20:07:48.849Z,20.00
2022-08-05T20:11:27.556Z,19.80
2022-08-05T20:15:12.507Z,19.80
2022-08-05T20:18:56.310Z,19.60
2022-08-05T20:22:41.488Z,19.60
2022-08-05T20:26:27.202Z,19.50
2022-08-05T20:30:11.500Z,19.50
2022-08-05T20:33:54.619Z,19.50
2022-08-05T20:38:06.362Z,19.30
2022-08-05T20:41:44.160Z,19.30
2022-08-05T20:45:56.150Z,19.20
2022-08-05T20:49:37.977Z,19.30
2022-08-05T20:53:36.845Z,19.30
2022-08-05T20:57:42.734Z,19.40
2022-08-05T21:01:38.215Z,19.20
2022-08-05T21:05:22.096Z,19.20
2022-08-05T21:09:06.079Z,19.20
2022-08-05T21:12:57.617Z,19.20
2022-08-05T21:16:53.289Z,19.00
2022-08-05T21:20:36.332Z,19.10
2022-08-05T21:24:19.491Z,19.10
2022-08-05T21:28:03.923Z,19.10
2022-08-05T21:31:46.678Z,19.10
2022-08-05T21:35:43.680Z,19.20
2022-08-05T21:39:40.766Z,19.00
2022-08-05T21:43:24.946Z,19.00
2022-08-05T21:47:32.816Z,18.90
2022-08-05T21:52:15.358Z,18.90
2022-08-05T21:55:14.461Z,18.70
2022-08-05T21:58:58.054Z,18.70
2022-08-05T22:02:41.551Z,18.70
2022-08-05T22:06:35.361Z,18.60
2022-08-05T22:10:25.593Z,18.70
2022-08-05T22:14:34.386Z,18.70
2022-08-05T22:18:14.600Z,18.60
2022-08-05T22:21:58.940Z,18.70
2022-08-05T22:26:09.683Z,18.60
2022-08-05T22:29:54.405Z,18.60
2022-08-05T22:33:56.860Z,18.60
2022-08-05T22:52:48.553Z,18.20
2022-08-05T22:56:31.475Z,18.20
2022-08-05T23:00:17.876Z,18.20
2022-08-05T23:04:03.075Z,18.20
2022-08-05T23:07:48.613Z,18.30
2022-08-05T23:11:33.006Z,18.30
2022-08-05T23:15:15.590Z,18.20
2022-08-05T23:18:59.234Z,18.30
2022-08-05T23:22:42.079Z,18.30
2022-08-05T23:26:25.858Z,18.30
2022-08-05T23:30:11.033Z,18.30
2022-08-05T23:34:04.226Z,18.30
2022-08-05T23:37:49.037Z,18.30
2022-08-05T23:41:34.317Z,18.30
2022-08-05T23:45:20.353Z,18.30
2022-08-05T23:49:16.083Z,18.20
2022-08-05T23:52:59.575Z,18.20
2022-08-05T23:56:44.818Z,18.10
